Time;durP1;ratioP1;P1;durP2;ratioP2;P2;SDS_P1;SDS_P2;PMS_P1;PMS_P2;Temp;Humidity;BMP_temperature;BMP_pressure;BME280_temperature;BME280_humidity;BME280_pressure;Samples;Min_cycle;Max_cycle;Signal;HPM_P1;HPM_P2
2022/12/24 00:01:56;;;;;;;36.53;10.60;;;9.20;99.90;;;;;;5104512;28;20043;-80
2022/12/24 00:04:22;;;;;;;39.17;13.02;;;9.10;99.90;;;;;;5119851;28;20058;-80
2022/12/24 00:06:48;;;;;;;29.38;9.98;;;9.10;99.90;;;;;;5137701;28;20047;-79
2022/12/24 00:09:13;;;;;;;36.22;10.35;;;9.10;99.90;;;;;;5139002;27;20039;-80
2022/12/24 00:11:39;;;;;;;35.33;10.95;;;9.10;99.90;;;;;;5119767;27;20080;-80
2022/12/24 00:14:05;;;;;;;35.97;10.32;;;9.10;99.90;;;;;;5138763;27;20548;-80
2022/12/24 00:16:31;;;;;;;37.83;9.77;;;9.10;99.90;;;;;;5137247;27;20047;-78
2022/12/24 00:18:56;;;;;;;29.92;8.90;;;9.10;99.90;;;;;;5136988;27;20096;-79
2022/12/24 00:21:22;;;;;;;25.27;8.25;;;9.10;99.90;;;;;;5101505;27;20039;-77
2022/12/24 00:23:48;;;;;;;29.98;8.20;;;9.00;99.90;;;;;;5136430;27;20088;-79
2022/12/24 00:26:14;;;;;;;25.70;8.38;;;9.10;99.90;;;;;;5136796;27;20051;-78
2022/12/24 00:28:40;;;;;;;26.00;7.45;;;9.00;99.90;;;;;;5118629;27;20054;-78
2022/12/24 00:31:07;;;;;;;25.42;7.03;;;9.00;99.90;;;;;;5137215;27;20123;-77
2022/12/24 00:33:33;;;;;;;24.85;6.88;;;9.00;99.90;;;;;;5136371;27;20054;-77
2022/12/24 00:35:59;;;;;;;22.38;6.82;;;9.00;99.90;;;;;;5135917;27;20043;-79
2022/12/24 00:38:24;;;;;;;23.15;7.10;;;9.00;99.90;;;;;;5115830;27;20158;-79
2022/12/24 00:40:50;;;;;;;24.10;6.50;;;9.00;99.90;;;;;;5135953;27;20059;-79
2022/12/24 00:43:16;;;;;;;29.02;6.97;;;9.00;99.90;;;;;;5136380;27;20043;-76
2022/12/24 00:45:41;;;;;;;26.45;6.53;;;9.00;99.90;;;;;;5136000;27;20046;-77
2022/12/24 00:48:07;;;;;;;27.20;6.45;;;9.00;99.90;;;;;;5136035;27;20075;-74
2022/12/24 00:50:33;;;;;;;18.92;5.90;;;9.00;99.90;;;;;;5136374;27;20039;-78
2022/12/24 00:52:59;;;;;;;28.13;6.30;;;9.00;99.90;;;;;;5136232;27;20042;-77
2022/12/24 00:55:24;;;;;;;19.92;6.00;;;9.00;99.90;;;;;;5136508;27;20128;-77
2022/12/24 00:57:50;;;;;;;22.20;6.40;;;8.90;99.90;;;;;;5117401;27;20079;-77
2022/12/24 01:00:16;;;;;;;19.65;5.85;;;9.00;99.90;;;;;;5136238;27;20039;-78
2022/12/24 01:02:42;;;;;;;19.52;6.28;;;9.00;99.90;;;;;;5117224;27;20122;-78
2022/12/24 01:05:10;;;;;;;25.65;6.30;;;9.00;99.90;;;;;;5117412;27;20138;-79
2022/12/24 01:07:43;;;;;;;21.58;6.75;;;8.90;99.90;;;;;;5135568;27;20178;-78
2022/12/24 01:10:11;;;;;;;22.42;6.88;;;9.00;99.90;;;;;;5135920;27;20436;-78
2022/12/24 01:12:37;;;;;;;22.70;7.45;;;9.00;99.90;;;;;;5135932;27;20043;-79
2022/12/24 01:15:03;;;;;;;25.38;7.00;;;9.00;99.90;;;;;;5136079;27;20043;-78
2022/12/24 01:17:31;;;;;;;22.60;6.05;;;9.00;99.90;;;;;;5083799;27;20126;-78
2022/12/24 01:19:57;;;;;;;22.67;5.95;;;9.00;99.90;;;;;;5116397;27;20039;-78
2022/12/24 01:22:22;;;;;;;23.20;6.30;;;9.10;99.90;;;;;;5135344;27;20046;-78
2022/12/24 01:24:48;;;;;;;14.93;5.35;;;9.10;99.90;;;;;;5135706;27;20046;-78
2022/12/24 01:27:14;;;;;;;14.05;4.53;;;9.10;99.90;;;;;;5135118;27;20118;-77
2022/12/24 01:29:39;;;;;;;17.23;4.32;;;9.10;99.90;;;;;;5100252;27;20494;-79
2022/12/24 01:32:05;;;;;;;15.32;4.43;;;9.10;99.90;;;;;;5116780;27;20075;-80
2022/12/24 01:34:31;;;;;;;14.02;3.88;;;9.00;99.90;;;;;;5135432;27;20054;-77
2022/12/24 01:36:57;;;;;;;20.15;4.28;;;9.00;99.90;;;;;;5135103;27;20051;-80
2022/12/24 01:39:23;;;;;;;21.25;4.70;;;9.00;99.90;;;;;;5134958;27;20057;-81
2022/12/24 01:44:38;;;;;;;46.92;8.02;;;9.00;99.90;;;;;;5135564;27;20039;-78
2022/12/24 01:47:13;;;;;;;49.97;8.20;;;8.90;99.90;;;;;;5135518;27;20114;-80
2022/12/24 01:49:43;;;;;;;51.63;6.78;;;8.90;99.90;;;;;;5116269;27;20047;-77
2022/12/24 01:52:20;;;;;;;55.67;7.20;;;8.90;99.90;;;;;;5100134;27;20051;-78
2022/12/24 01:54:52;;;;;;;60.08;8.13;;;8.80;99.90;;;;;;5116194;27;20499;-78
2022/12/24 01:57:21;;;;;;;69.93;8.45;;;8.70;99.90;;;;;;5135218;27;20039;-78
2022/12/24 01:59:50;;;;;;;62.35;8.23;;;8.70;99.90;;;;;;5117548;27;20051;-77
2022/12/24 02:02:17;;;;;;;62.67;8.63;;;8.70;99.90;;;;;;5135930;27;20096;-79
2022/12/24 02:04:53;;;;;;;59.35;7.07;;;8.70;99.90;;;;;;5135705;27;20408;-77
2022/12/24 02:07:19;;;;;;;64.15;7.80;;;8.70;99.90;;;;;;5134167;27;20122;-73
2022/12/24 02:09:48;;;;;;;70.00;7.15;;;8.70;99.90;;;;;;5133645;27;20520;-72
2022/12/24 02:12:14;;;;;;;67.38;6.53;;;8.70;99.90;;;;;;5134404;27;20130;-72
2022/12/24 02:14:40;;;;;;;61.40;5.03;;;8.70;99.90;;;;;;5115774;27;20081;-72
2022/12/24 02:17:23;;;;;;;53.22;4.80;;;8.70;99.90;;;;;;5134647;27;20097;-72
2022/12/24 02:20:20;;;;;;;50.25;4.72;;;8.70;99.90;;;;;;5099148;27;20058;-72
2022/12/24 02:23:16;;;;;;;56.30;5.38;;;8.80;99.90;;;;;;5099465;27;20047;-72
2022/12/24 02:25:44;;;;;;;58.00;4.47;;;8.70;99.90;;;;;;5115772;27;20050;-72
2022/12/24 02:28:22;;;;;;;56.13;4.10;;;8.80;99.90;;;;;;5115915;27;20281;-73
2022/12/24 02:30:53;;;;;;;62.55;6.65;;;8.80;99.90;;;;;;5115430;27;20039;-73
2022/12/24 02:33:32;;;;;;;60.47;4.88;;;8.80;99.90;;;;;;5133030;27;20054;-73
2022/12/24 02:36:03;;;;;;;81.90;5.45;;;8.80;99.90;;;;;;5115502;27;20066;-72
2022/12/24 02:38:44;;;;;;;56.30;4.43;;;8.80;99.90;;;;;;5099088;27;20134;-73
2022/12/24 02:41:19;;;;;;;56.75;4.00;;;8.80;99.90;;;;;;5133832;27;20089;-73
2022/12/24 02:43:47;;;;;;;60.33;5.50;;;8.80;99.90;;;;;;5133673;27;20059;-73
2022/12/24 02:46:17;;;;;;;49.10;3.97;;;8.80;99.90;;;;;;5133650;27;20114;-72
2022/12/24 02:48:46;;;;;;;47.65;3.53;;;8.90;99.90;;;;;;5115452;27;20047;-74
2022/12/24 02:51:12;;;;;;;40.83;4.05;;;8.90;99.90;;;;;;5115357;27;20043;-73
2022/12/24 02:53:38;;;;;;;54.17;3.65;;;8.80;99.90;;;;;;5133562;27;20053;-73
2022/12/24 02:56:26;;;;;;;47.00;5.67;;;8.90;99.90;;;;;;5133943;27;20051;-72
2022/12/24 02:59:10;;;;;;;64.20;5.13;;;8.80;99.90;;;;;;5115615;27;20053;-72
2022/12/24 03:02:18;;;;;;;52.30;4.05;;;8.90;99.90;;;;;;5134100;27;20425;-72
2022/12/24 03:05:10;;;;;;;61.92;5.63;;;8.90;99.90;;;;;;5103586;27;20081;-72
2022/12/24 03:07:58;;;;;;;73.95;5.13;;;8.90;99.90;;;;;;5098795;27;20051;-73
2022/12/24 03:10:34;;;;;;;71.40;5.35;;;8.80;99.90;;;;;;5083723;27;20074;-73
2022/12/24 03:13:17;;;;;;;59.70;4.38;;;8.90;99.90;;;;;;5115367;28;20419;-73
2022/12/24 03:15:44;;;;;;;65.72;5.75;;;8.80;99.90;;;;;;5133713;28;20053;-73
2022/12/24 03:18:14;;;;;;;59.78;6.03;;;8.80;99.90;;;;;;5133197;28;20035;-73
2022/12/24 03:20:45;;;;;;;56.00;4.63;;;8.80;99.90;;;;;;5098760;28;20337;-73
2022/12/24 03:23:12;;;;;;;64.75;4.55;;;8.80;99.90;;;;;;5115214;28;20398;-72
2022/12/24 03:25:40;;;;;;;47.13;3.85;;;8.70;99.90;;;;;;5133227;28;20108;-72
2022/12/24 03:28:07;;;;;;;51.92;4.85;;;8.80;99.90;;;;;;5115510;28;20050;-73
2022/12/24 03:30:33;;;;;;;68.03;4.75;;;8.80;99.90;;;;;;5132887;28;20043;-73
2022/12/24 03:32:59;;;;;;;58.00;4.95;;;8.80;99.90;;;;;;5133613;28;20088;-74
2022/12/24 03:35:25;;;;;;;56.33;5.88;;;8.80;99.90;;;;;;5114932;28;20047;-73
2022/12/24 03:37:51;;;;;;;61.75;4.60;;;8.80;99.90;;;;;;5081280;28;20051;-72
2022/12/24 03:40:17;;;;;;;61.57;4.30;;;8.80;99.90;;;;;;5132493;28;20406;-73
2022/12/24 03:42:43;;;;;;;63.83;5.80;;;8.80;99.90;;;;;;5133520;27;20070;-75
2022/12/24 03:45:09;;;;;;;62.88;4.57;;;8.90;99.90;;;;;;5136730;27;20047;-73
2022/12/24 03:47:35;;;;;;;57.05;3.97;;;8.90;99.90;;;;;;5137021;27;20371;-73
2022/12/24 03:50:00;;;;;;;71.68;4.88;;;8.90;99.90;;;;;;5137119;27;20043;-73
2022/12/24 03:52:27;;;;;;;53.53;4.32;;;9.00;99.90;;;;;;5118501;27;20055;-73
2022/12/24 03:54:53;;;;;;;58.35;4.88;;;9.00;99.90;;;;;;5118592;27;20043;-74
2022/12/24 03:57:18;;;;;;;60.53;5.13;;;9.00;99.90;;;;;;5136890;27;20119;-74
2022/12/24 03:59:44;;;;;;;64.25;4.00;;;9.10;99.90;;;;;;5136787;27;20039;-75
2022/12/24 04:02:10;;;;;;;71.70;5.05;;;9.00;99.90;;;;;;5101628;27;20057;-73
2022/12/24 04:04:36;;;;;;;53.67;4.72;;;9.10;99.90;;;;;;5136730;27;20395;-73
2022/12/24 04:07:04;;;;;;;52.13;4.40;;;9.10;99.90;;;;;;5136704;27;20054;-73
2022/12/24 04:09:30;;;;;;;47.88;5.18;;;9.10;99.90;;;;;;5136885;27;20123;-73
2022/12/24 04:11:56;;;;;;;60.05;5.97;;;9.10;99.90;;;;;;5118440;27;20523;-73
2022/12/24 04:14:22;;;;;;;68.72;5.13;;;9.10;99.90;;;;;;5117895;27;20039;-73
2022/12/24 04:16:47;;;;;;;60.88;4.22;;;9.10;99.90;;;;;;5118970;27;20078;-75
2022/12/24 04:19:13;;;;;;;50.63;4.38;;;9.20;99.90;;;;;;5118085;27;20470;-74
2022/12/24 04:21:39;;;;;;;50.70;4.45;;;9.10;99.90;;;;;;5117861;27;20050;-73
2022/12/24 04:24:05;;;;;;;45.97;4.25;;;9.10;99.90;;;;;;5118090;27;20230;-72
2022/12/24 04:26:31;;;;;;;56.38;4.05;;;9.10;99.90;;;;;;5118530;27;20381;-73
2022/12/24 04:28:56;;;;;;;51.90;4.97;;;9.10;99.90;;;;;;5117267;27;20043;-72
2022/12/24 04:31:22;;;;;;;65.43;6.68;;;9.10;99.90;;;;;;5118362;27;20036;-73
2022/12/24 04:33:51;;;;;;;36.60;4.38;;;9.10;99.90;;;;;;5117757;27;20081;-74
2022/12/24 04:36:18;;;;;;;54.92;4.75;;;9.10;99.90;;;;;;5117387;27;20075;-72
2022/12/24 04:38:44;;;;;;;;;;;9.10;99.90;;;;;;5136252;27;20407;-74
2022/12/24 04:41:19;;;;;;;50.20;5.10;;;9.10;99.90;;;;;;5136531;27;19919;-73
2022/12/24 04:43:45;;;;;;;53.00;4.85;;;9.10;99.90;;;;;;5117761;27;20464;-74
2022/12/24 04:46:19;;;;;;;59.38;6.10;;;9.10;99.90;;;;;;5135879;27;20061;-74
2022/12/24 04:48:47;;;;;;;51.40;4.82;;;9.20;99.90;;;;;;5135940;27;20343;-74
2022/12/24 04:51:14;;;;;;;57.97;4.80;;;9.20;99.90;;;;;;5135363;27;20035;-73
2022/12/24 04:53:41;;;;;;;58.13;4.95;;;9.20;99.90;;;;;;5135717;27;20043;-73
2022/12/24 04:56:19;;;;;;;53.08;4.75;;;9.20;99.90;;;;;;5117229;27;20070;-74
2022/12/24 04:58:45;;;;;;;64.88;6.10;;;9.20;99.90;;;;;;5117685;27;20043;-73
2022/12/24 05:01:14;;;;;;;65.38;5.45;;;9.20;99.90;;;;;;5135240;27;20050;-73
2022/12/24 05:03:40;;;;;;;47.70;4.15;;;9.20;99.90;;;;;;5135540;27;20039;-74
2022/12/24 05:06:09;;;;;;;58.67;5.05;;;9.20;99.90;;;;;;5117379;27;20053;-73
2022/12/24 05:08:35;;;;;;;67.72;5.80;;;9.20;99.90;;;;;;5100370;27;20051;-73
2022/12/24 05:11:04;;;;;;;69.50;5.07;;;9.20;99.90;;;;;;5136139;27;20065;-73
2022/12/24 05:13:30;;;;;;;52.85;6.20;;;9.20;99.90;;;;;;5117497;27;20406;-73
2022/12/24 05:15:56;;;;;;;71.38;5.20;;;9.10;99.90;;;;;;5135935;27;20386;-72
2022/12/24 05:18:22;;;;;;;53.53;4.05;;;9.10;99.90;;;;;;5117220;27;20047;-73
2022/12/24 05:20:48;;;;;;;61.10;6.28;;;9.10;99.90;;;;;;5100608;27;20043;-74
2022/12/24 05:28:45;;;;;;;71.07;5.40;;;9.10;99.90;;;;;;5117093;27;19919;-73
2022/12/24 05:31:11;;;;;;;57.08;4.70;;;9.10;99.90;;;;;;5135245;27;20415;-74
2022/12/24 05:33:37;;;;;;;74.25;5.20;;;9.00;99.90;;;;;;5116706;27;20042;-73
2022/12/24 05:36:03;;;;;;;57.83;4.50;;;9.00;99.90;;;;;;5099987;27;20047;-72
2022/12/24 05:38:28;;;;;;;50.25;4.63;;;9.00;99.90;;;;;;5099542;27;20047;-74
2022/12/24 05:40:54;;;;;;;68.22;5.10;;;9.00;99.90;;;;;;5134859;27;20047;-74
2022/12/24 05:43:20;;;;;;;58.67;4.47;;;9.00;99.90;;;;;;5134475;27;20124;-74
2022/12/24 05:45:45;;;;;;;60.08;4.72;;;8.90;99.90;;;;;;5135472;27;20039;-73
2022/12/24 05:48:11;;;;;;;47.08;4.03;;;8.90;99.90;;;;;;5135023;27;20444;-73
2022/12/24 05:50:39;;;;;;;52.13;4.30;;;8.90;99.90;;;;;;5116236;27;20103;-73
2022/12/24 05:53:05;;;;;;;59.00;4.47;;;8.80;99.90;;;;;;5099245;27;20047;-73
2022/12/24 05:55:31;;;;;;;55.70;5.15;;;8.80;99.90;;;;;;5134542;27;20051;-74
2022/12/24 05:57:57;;;;;;;59.50;5.35;;;8.80;99.90;;;;;;5134471;27;20175;-72
2022/12/24 06:00:23;;;;;;;55.50;6.30;;;8.80;99.90;;;;;;5134167;27;20498;-73
2022/12/24 06:02:48;;;;;;;63.78;4.55;;;8.80;99.90;;;;;;5134693;27;20116;-74
2022/12/24 06:05:14;;;;;;;63.28;4.00;;;8.70;99.90;;;;;;5135112;27;20043;-73
2022/12/24 06:07:40;;;;;;;65.18;4.63;;;8.60;99.90;;;;;;5134537;27;20446;-74
2022/12/24 06:10:06;;;;;;;53.55;5.05;;;8.50;99.90;;;;;;5134281;27;20080;-73
2022/12/24 06:12:32;;;;;;;62.13;5.93;;;8.50;99.90;;;;;;5098803;27;20050;-74
2022/12/24 06:14:58;;;;;;;50.17;5.03;;;8.40;99.90;;;;;;5134196;27;20043;-73
2022/12/24 06:17:24;;;;;;;55.00;4.68;;;8.50;99.90;;;;;;5134225;27;20121;-74
2022/12/24 06:19:49;;;;;;;55.60;4.10;;;8.40;99.90;;;;;;5134237;27;20043;-73
2022/12/24 06:22:15;;;;;;;42.22;3.58;;;8.40;99.90;;;;;;5134791;27;20075;-73
2022/12/24 06:24:41;;;;;;;51.25;5.15;;;8.40;99.90;;;;;;5134024;27;20050;-73
2022/12/24 06:27:07;;;;;;;70.68;6.07;;;8.40;99.90;;;;;;5116617;27;20043;-74
2022/12/24 06:29:33;;;;;;;57.05;4.40;;;8.40;99.90;;;;;;5099083;27;20356;-73
2022/12/24 06:31:59;;;;;;;55.97;4.93;;;8.40;99.90;;;;;;5115830;27;20427;-74
2022/12/24 06:34:24;;;;;;;50.22;4.10;;;8.40;99.90;;;;;;5115572;27;20047;-74
2022/12/24 06:36:50;;;;;;;51.60;4.43;;;8.40;99.90;;;;;;5133988;27;20091;-74
2022/12/24 06:39:16;;;;;;;61.05;4.63;;;8.40;99.90;;;;;;5098618;27;20062;-73
2022/12/24 06:41:42;;;;;;;56.67;4.95;;;8.40;99.90;;;;;;5115705;27;20047;-73
2022/12/24 06:44:08;;;;;;;58.72;5.57;;;8.30;99.90;;;;;;5115437;27;20432;-74
2022/12/24 06:46:34;;;;;;;58.42;4.75;;;8.30;99.90;;;;;;5115271;27;20130;-73
2022/12/24 06:48:59;;;;;;;55.90;4.57;;;8.30;99.90;;;;;;5115270;27;20149;-74
2022/12/24 06:51:25;;;;;;;52.33;3.60;;;8.40;99.90;;;;;;5133700;27;20516;-74
2022/12/24 06:53:51;;;;;;;56.25;5.25;;;8.40;99.90;;;;;;5133546;27;20043;-74
2022/12/24 06:56:19;;;;;;;65.45;6.60;;;8.40;99.90;;;;;;5099166;27;20463;-75
2022/12/24 06:58:45;;;;;;;62.15;4.90;;;8.50;99.90;;;;;;5133415;27;20046;-74
2022/12/24 07:01:13;;;;;;;51.75;5.00;;;8.50;99.90;;;;;;5098460;27;20043;-73
2022/12/24 07:03:42;;;;;;;55.97;5.60;;;8.50;99.90;;;;;;5134073;27;20126;-73
2022/12/24 07:06:28;;;;;;;42.35;3.55;;;8.50;99.90;;;;;;5133582;27;20074;-74
2022/12/24 07:08:54;;;;;;;51.50;4.22;;;8.60;99.90;;;;;;5114717;28;20047;-73
2022/12/24 07:11:21;;;;;;;42.10;3.60;;;8.50;99.90;;;;;;5114798;27;20054;-73
2022/12/24 07:13:48;;;;;;;58.67;4.45;;;8.60;99.90;;;;;;5098214;28;20043;-73
2022/12/24 07:16:14;;;;;;;57.42;5.22;;;8.60;99.90;;;;;;5098461;28;20058;-73
2022/12/24 07:18:40;;;;;;;60.75;4.85;;;8.50;99.90;;;;;;5137427;27;20078;-73
2022/12/24 07:21:06;;;;;;;68.90;5.75;;;8.60;99.90;;;;;;5121783;27;20383;-72
2022/12/24 07:23:33;;;;;;;58.13;5.40;;;8.60;99.90;;;;;;5140190;27;20121;-73
2022/12/24 07:26:00;;;;;;;60.42;4.85;;;8.50;99.90;;;;;;5121990;27;20039;-73
2022/12/24 07:28:26;;;;;;;59.75;4.45;;;8.60;99.90;;;;;;5104664;27;20445;-74
2022/12/24 07:30:52;;;;;;;51.88;4.45;;;8.60;99.90;;;;;;5140496;27;20043;-74
2022/12/24 07:33:17;;;;;;;66.35;6.30;;;8.70;99.90;;;;;;5121635;27;20093;-73
2022/12/24 07:35:43;;;;;;;55.50;5.53;;;8.70;99.90;;;;;;5104659;27;20138;-73
2022/12/24 07:38:09;;;;;;;59.25;4.97;;;8.70;99.90;;;;;;5104644;27;20039;-73
2022/12/24 07:40:35;;;;;;;60.60;5.60;;;8.80;99.90;;;;;;5088113;27;20059;-74
2022/12/24 07:43:01;;;;;;;61.92;5.78;;;8.80;99.90;;;;;;5139984;27;20525;-74
2022/12/24 07:45:26;;;;;;;74.72;6.10;;;8.80;99.90;;;;;;5104445;27;20043;-73
2022/12/24 07:47:52;;;;;;;65.05;5.57;;;8.80;99.90;;;;;;5121897;27;20047;-73
2022/12/24 07:50:18;;;;;;;65.10;6.15;;;8.80;99.90;;;;;;5139384;27;20069;-73
2022/12/24 07:52:44;;;;;;;61.65;5.90;;;8.80;99.90;;;;;;5122124;27;20043;-73
2022/12/24 07:55:09;;;;;;;56.10;5.63;;;8.80;99.90;;;;;;5139794;27;20371;-73
2022/12/24 07:57:35;;;;;;;59.63;6.72;;;8.80;99.90;;;;;;5139320;27;20039;-73
2022/12/24 08:00:01;;;;;;;67.28;4.72;;;8.80;99.90;;;;;;5121277;27;20122;-72
2022/12/24 08:02:27;;;;;;;66.75;6.65;;;8.90;99.90;;;;;;5087739;27;20086;-74
2022/12/24 08:04:52;;;;;;;60.10;6.30;;;8.90;99.90;;;;;;5121500;27;20039;-72
2022/12/24 08:07:18;;;;;;;53.67;6.45;;;9.00;99.90;;;;;;5121476;27;20054;-74
2022/12/24 08:09:45;;;;;;;69.93;7.60;;;9.00;99.90;;;;;;5121534;27;20045;-73
2022/12/24 08:12:11;;;;;;;58.67;5.20;;;8.90;99.90;;;;;;5121195;27;20066;-73
2022/12/24 08:14:36;;;;;;;65.95;5.78;;;8.90;99.90;;;;;;5139479;27;20043;-74
2022/12/24 08:17:02;;;;;;;49.92;6.70;;;9.00;99.90;;;;;;5121217;27;20184;-73
2022/12/24 08:19:28;;;;;;;53.00;5.50;;;9.00;99.90;;;;;;5140167;27;20043;-72
2022/12/24 08:21:54;;;;;;;65.18;6.70;;;9.00;99.90;;;;;;5140002;27;20100;-73
2022/12/24 08:24:19;;;;;;;63.00;8.50;;;9.00;99.90;;;;;;5104684;27;20195;-73
2022/12/24 08:26:45;;;;;;;58.88;6.93;;;9.00;99.90;;;;;;5139701;27;20038;-73
2022/12/24 08:29:11;;;;;;;63.88;7.25;;;9.10;99.90;;;;;;5138430;27;20476;-72
2022/12/24 08:31:36;;;;;;;70.55;8.27;;;9.10;99.90;;;;;;5100785;27;20582;-73
2022/12/24 08:34:07;;;;;;;65.40;6.88;;;9.10;99.90;;;;;;5101106;27;20043;-73
2022/12/24 08:36:34;;;;;;;61.95;6.75;;;9.20;99.90;;;;;;5117923;27;20062;-73
2022/12/24 08:39:02;;;;;;;65.80;7.03;;;9.20;99.90;;;;;;5117933;27;20403;-73
2022/12/24 08:41:31;;;;;;;60.33;6.68;;;9.20;99.90;;;;;;5117629;27;20613;-74
2022/12/24 08:43:57;;;;;;;54.40;7.32;;;9.30;99.90;;;;;;5083537;27;20129;-75
2022/12/24 08:46:23;;;;;;;71.07;6.97;;;9.30;99.90;;;;;;5101147;27;20068;-74
2022/12/24 08:48:49;;;;;;;50.55;6.00;;;9.40;99.90;;;;;;5117381;27;20424;-72
2022/12/24 08:51:15;;;;;;;66.43;6.43;;;9.40;99.90;;;;;;5117687;27;20108;-74
2022/12/24 08:53:41;;;;;;;72.00;7.35;;;9.50;99.90;;;;;;5101378;27;20047;-75
2022/12/24 08:56:08;;;;;;;64.70;7.10;;;9.50;99.90;;;;;;5117561;27;20502;-74
2022/12/24 08:58:34;;;;;;;58.60;7.68;;;9.50;99.90;;;;;;5117420;27;20508;-75
2022/12/24 09:01:00;;;;;;;67.90;8.10;;;9.50;99.90;;;;;;5117412;27;20051;-75
2022/12/24 09:03:26;;;;;;;75.88;9.05;;;9.50;99.90;;;;;;5100388;27;20134;-74
2022/12/24 09:05:52;;;;;;;51.60;6.30;;;9.50;99.90;;;;;;5118417;27;20047;-74
2022/12/24 09:08:19;;;;;;;68.55;6.43;;;9.50;99.90;;;;;;5100830;27;20368;-74
2022/12/24 09:10:45;;;;;;;60.35;6.88;;;9.60;99.90;;;;;;5100767;27;20054;-74
2022/12/24 09:13:11;;;;;;;67.85;6.97;;;9.60;99.90;;;;;;5135674;27;20051;-75
2022/12/24 09:15:36;;;;;;;56.70;6.78;;;9.70;99.90;;;;;;5116840;27;20047;-74
2022/12/24 09:18:02;;;;;;;58.83;6.90;;;9.80;99.90;;;;;;5117099;27;20035;-75
2022/12/24 09:20:28;;;;;;;61.80;7.53;;;9.90;99.90;;;;;;5135204;27;20085;-75
2022/12/24 09:22:54;;;;;;;58.10;7.63;;;9.90;99.90;;;;;;5135108;27;20039;-74
2022/12/24 09:25:19;;;;;;;68.45;7.40;;;9.90;99.90;;;;;;5099705;27;20042;-74
2022/12/24 09:27:45;;;;;;;60.30;6.18;;;9.90;99.90;;;;;;5135202;27;20053;-73
2022/12/24 09:30:11;;;;;;;58.55;5.68;;;9.80;99.90;;;;;;5135486;27;20456;-74
2022/12/24 09:32:37;;;;;;;63.03;6.72;;;9.80;99.90;;;;;;5116530;27;20099;-74
2022/12/24 09:35:04;;;;;;;60.72;7.00;;;9.80;99.90;;;;;;5116662;27;20051;-74
2022/12/24 09:37:30;;;;;;;53.20;5.93;;;9.80;99.90;;;;;;5099869;27;20063;-74
2022/12/24 09:39:56;;;;;;;66.32;6.15;;;9.90;99.90;;;;;;5115977;27;20467;-74
2022/12/24 09:42:50;;;;;;;56.65;5.88;;;10.00;99.90;;;;;;5116830;27;20090;-74
2022/12/24 09:45:26;;;;;;;54.20;5.93;;;10.10;99.90;;;;;;5116941;27;20046;-74
2022/12/24 09:48:23;;;;;;;69.55;5.40;;;10.10;99.90;;;;;;5134933;27;20074;-72
2022/12/24 09:51:00;;;;;;;51.25;5.38;;;10.10;99.90;;;;;;5112648;27;20101;-73
2022/12/24 09:53:38;;;;;;;52.80;5.47;;;10.00;99.90;;;;;;5134468;27;20138;-72
2022/12/24 09:56:11;;;;;;;41.22;5.45;;;9.90;99.90;;;;;;5134648;27;20051;-72
2022/12/24 09:58:46;;;;;;;53.28;6.85;;;9.80;99.90;;;;;;5134351;27;20050;-73
2022/12/24 10:01:14;;;;;;;45.15;4.60;;;9.70;99.90;;;;;;5117014;27;20375;-72
2022/12/24 10:03:40;;;;;;;40.13;3.40;;;9.70;99.90;;;;;;5134504;27;20110;-71
2022/12/24 10:06:27;;;;;;;37.92;6.32;;;9.60;99.90;;;;;;5115798;27;20051;-73
2022/12/24 10:09:11;;;;;;;33.20;4.28;;;9.60;99.90;;;;;;5135126;27;20107;-72
2022/12/24 10:11:39;;;;;;;40.85;4.43;;;9.60;99.90;;;;;;5134338;27;20127;-73
2022/12/24 10:14:17;;;;;;;43.08;4.28;;;9.60;99.90;;;;;;5133594;27;20512;-72
2022/12/24 10:17:35;;;;;;;50.80;5.95;;;9.60;99.90;;;;;;5134357;27;20494;-73
2022/12/24 10:20:19;;;;;;;49.40;5.95;;;9.70;99.90;;;;;;5090268;27;20082;-72
2022/12/24 10:22:54;;;;;;;45.28;5.82;;;9.70;99.90;;;;;;5115219;27;20459;-70
2022/12/24 10:25:32;;;;;;;64.05;6.78;;;9.80;99.90;;;;;;5115498;27;20144;-73
2022/12/24 10:28:01;;;;;;;56.58;5.95;;;9.90;99.90;;;;;;5133663;27;20486;-73
2022/12/24 10:30:27;;;;;;;53.88;6.35;;;9.90;99.90;;;;;;5115295;27;20126;-71
2022/12/24 10:32:54;;;;;;;51.15;6.40;;;10.00;99.90;;;;;;5116113;27;20043;-71
2022/12/24 10:35:27;;;;;;;58.85;6.88;;;10.00;99.90;;;;;;5115720;27;20039;-72
2022/12/24 10:37:56;;;;;;;51.38;5.93;;;10.10;99.90;;;;;;5134416;27;20047;-72
2022/12/24 10:40:34;;;;;;;58.05;6.38;;;10.10;99.90;;;;;;5114789;27;20495;-72
2022/12/24 10:43:00;;;;;;;42.75;6.03;;;10.10;99.90;;;;;;5133962;27;20138;-73
2022/12/24 10:45:39;;;;;;;71.47;6.53;;;10.20;99.90;;;;;;5098628;27;20043;-73
2022/12/24 10:48:13;;;;;;;58.03;7.10;;;10.30;99.90;;;;;;5133155;27;20468;-72
2022/12/24 10:50:48;;;;;;;82.45;8.23;;;10.30;99.90;;;;;;5115445;27;20039;-73
2022/12/24 10:53:31;;;;;;;54.03;6.57;;;10.40;99.90;;;;;;5132635;27;20051;-73
2022/12/24 10:56:09;;;;;;;82.50;10.98;;;10.40;99.90;;;;;;5116027;27;20108;-72
2022/12/24 10:58:35;;;;;;;59.10;6.57;;;10.40;99.90;;;;;;5115505;27;20089;-72
2022/12/24 11:01:01;;;;;;;56.95;6.50;;;10.50;99.90;;;;;;5133704;27;20426;-72
2022/12/24 11:03:35;;;;;;;66.03;6.93;;;10.50;99.90;;;;;;5115058;27;20053;-71
2022/12/24 11:06:08;;;;;;;50.70;6.93;;;10.50;99.90;;;;;;5114779;27;20086;-72
2022/12/24 11:08:35;;;;;;;53.38;6.05;;;10.50;99.90;;;;;;5115024;28;20122;-72
2022/12/24 11:11:08;;;;;;;64.63;8.38;;;10.50;99.90;;;;;;5133323;28;20039;-73
2022/12/24 11:13:40;;;;;;;86.53;8.77;;;10.40;99.90;;;;;;5133165;27;20047;-72
2022/12/24 11:16:09;;;;;;;61.40;6.05;;;10.40;99.90;;;;;;5115109;28;20134;-73
2022/12/24 11:18:37;;;;;;;69.72;6.95;;;10.30;99.90;;;;;;5134105;28;20046;-74
2022/12/24 11:21:04;;;;;;;70.30;6.13;;;10.40;99.90;;;;;;5115054;28;20082;-74
2022/12/24 11:23:30;;;;;;;;;;;10.40;99.90;;;;;;5116296;28;20141;-73
2022/12/24 11:25:57;;;;;;;68.10;5.17;;;10.30;99.90;;;;;;5133390;28;19974;-73
2022/12/24 11:28:26;;;;;;;68.50;6.60;;;10.30;99.90;;;;;;5133877;28;20387;-72
2022/12/24 11:31:19;;;;;;;62.33;6.75;;;10.40;99.90;;;;;;5115075;28;20051;-73
2022/12/24 11:33:47;;;;;;;63.65;6.53;;;10.40;99.90;;;;;;5115166;28;20362;-72
2022/12/24 11:36:15;;;;;;;63.75;5.82;;;10.40;99.90;;;;;;5133889;28;20043;-73
2022/12/24 11:38:41;;;;;;;63.20;5.65;;;10.40;99.90;;;;;;5114754;27;20051;-73
2022/12/24 11:41:11;;;;;;;71.68;6.00;;;10.50;99.90;;;;;;5114930;28;20165;-74
2022/12/24 11:43:44;;;;;;;61.13;5.30;;;10.50;99.90;;;;;;5133193;28;20072;-72
2022/12/24 11:46:16;;;;;;;56.05;5.32;;;10.50;99.90;;;;;;5115514;28;20042;-71
2022/12/24 11:48:42;;;;;;;49.22;5.75;;;10.50;99.90;;;;;;5115161;28;20138;-72
2022/12/24 11:51:23;;;;;;;73.22;8.13;;;10.60;99.90;;;;;;5098162;28;20150;-73
2022/12/24 11:54:19;;;;;;;50.97;5.38;;;10.60;99.90;;;;;;5133178;28;20059;-73
2022/12/24 11:56:50;;;;;;;55.80;5.53;;;10.60;99.90;;;;;;5119135;28;20051;-73
2022/12/24 11:59:41;;;;;;;51.67;5.32;;;10.50;99.90;;;;;;5114594;28;20043;-74
2022/12/24 12:02:30;;;;;;;58.45;6.55;;;10.60;99.90;;;;;;5133771;28;20051;-72
2022/12/24 12:05:08;;;;;;;54.03;5.38;;;10.50;99.90;;;;;;5134545;27;20458;-72
2022/12/24 12:07:36;;;;;;;64.68;5.65;;;10.60;99.90;;;;;;5137253;27;20070;-72
2022/12/24 12:10:10;;;;;;;58.33;6.43;;;10.60;99.90;;;;;;5136628;27;20435;-72
2022/12/24 12:12:41;;;;;;;63.45;6.38;;;10.60;99.90;;;;;;5118808;27;20538;-73
2022/12/24 12:15:17;;;;;;;49.55;6.28;;;10.70;99.90;;;;;;5118711;27;20035;-73
2022/12/24 12:17:49;;;;;;;69.85;6.90;;;10.70;99.90;;;;;;5136851;27;20107;-73
2022/12/24 12:20:27;;;;;;;57.30;4.95;;;10.80;99.90;;;;;;5101798;27;20051;-73
2022/12/24 12:23:01;;;;;;;59.03;5.00;;;10.80;99.90;;;;;;5085657;27;20092;-75
2022/12/24 12:25:31;;;;;;;47.95;4.35;;;10.80;99.90;;;;;;5101541;27;20129;-71
2022/12/24 12:27:59;;;;;;;52.03;5.10;;;10.80;99.90;;;;;;5118320;27;20056;-73
2022/12/24 12:30:25;;;;;;;62.13;5.43;;;10.80;99.90;;;;;;5118138;27;20050;-73
2022/12/24 12:33:08;;;;;;;58.05;6.22;;;10.90;99.90;;;;;;5101427;27;20103;-72
2022/12/24 12:35:38;;;;;;;50.50;5.13;;;10.80;99.90;;;;;;5119007;27;20047;-73
2022/12/24 12:38:12;;;;;;;49.85;4.32;;;10.90;99.90;;;;;;5118294;27;20156;-73
2022/12/24 12:41:05;;;;;;;57.63;4.38;;;10.90;99.90;;;;;;5118118;27;20059;-72
2022/12/24 12:43:53;;;;;;;51.78;5.88;;;10.80;99.90;;;;;;5136507;27;20054;-74
2022/12/24 12:46:58;;;;;;;56.63;6.78;;;10.80;99.90;;;;;;5118557;27;20547;-74
2022/12/24 12:49:34;;;;;;;42.28;3.63;;;10.90;99.90;;;;;;5100684;27;20035;-72
2022/12/24 12:52:18;;;;;;;57.13;5.00;;;10.90;99.90;;;;;;5102193;27;20198;-78
2022/12/24 12:54:55;;;;;;;50.28;5.80;;;10.80;99.90;;;;;;5119637;27;20039;-73
2022/12/24 12:57:25;;;;;;;43.00;4.85;;;10.80;99.90;;;;;;5117749;27;20096;-73
2022/12/24 12:59:58;;;;;;;53.10;4.40;;;10.70;99.90;;;;;;5135867;27;20086;-72
2022/12/24 13:02:39;;;;;;;42.53;4.22;;;10.60;99.90;;;;;;5117601;27;20130;-73
2022/12/24 13:05:24;;;;;;;38.22;3.58;;;10.60;99.90;;;;;;5135828;27;20483;-73
2022/12/24 13:07:52;;;;;;;44.67;3.97;;;10.60;99.90;;;;;;5100894;27;20433;-74